Flight Track Log - Related Links

Times and Time Zones

All times are in EDT time to prevent confusion due to time zone crossing. See the LBQ670 flight status page for this flight to view local times or setup timezone preferences in your user account.

Time Position Orientation Groundspeed Altitude Reporting Facility
EDT Latitude Longitude Course Direction KTS MPH feet Rate Location/Type
Sat 06:10:27 AM 38.6717 -90.5869 78° East 177 204 2,500  Level Kansas City Center
Sat 06:11:27 AM 38.6756 -90.5136 86° East 213 245 5,100 2,430 Climbing Kansas City Center
Sat 06:12:28 AM 38.6828 -90.4369 83° East 215 247 7,400 2,033 Climbing Kansas City Center
Sat 06:13:28 AM 38.6908 -90.3589 82° East 233 268 9,200 1,800 Climbing Kansas City Center
Sat 06:14:28 AM 38.6994 -90.2733 83° East 242 278 11,000 1,800 Climbing Kansas City Center
Sat 06:15:00 AM 38.7021 -90.2002 111° Southeast  Level FlightAware Approximate
Sat 06:15:28 AM 38.7075 -90.1842 83° East 250 288 12,800  Level Kansas City Center
Sat 06:16:29 AM 38.7158 -90.0936 83° East 256 295 14,700 1,884 Climbing Kansas City Center
Sat 06:17:29 AM 38.7239 -90.0039 83° East 255 293 16,600 1,850 Climbing Kansas City Center
Sat 06:18:29 AM 38.7319 -89.9119 84° East 260 299 18,400 1,200 Climbing Kansas City Center
Sat 06:19:29 AM 38.7408 -89.8142 83° East 270 311 19,000 1,140 Climbing Kansas City Center
Sat 06:20:30 AM 38.7511 -89.7081 83° East 294 338 20,700 1,785 Climbing Kansas City Center
Sat 06:21:30 AM 38.7614 -89.5939 83° East 285 328 22,600 1,850 Climbing Kansas City Center
Sat 06:22:30 AM 38.7697 -89.4958 84° East 278 320 24,400 1,750 Climbing Kansas City Center
Sat 06:23:30 AM 38.7781 -89.3997 84° East 273 314 26,100 1,636 Climbing Kansas City Center
Sat 06:24:31 AM 38.7856 -89.3047 84° East 270 311 27,700 1,438 Climbing Kansas City Center
Sat 06:25:31 AM 38.7944 -89.2097 83° East 269 310 29,000 650 Climbing Kansas City Center
Sat 06:26:31 AM 38.8028 -89.1050 84° East 295 339 29,000  Level Kansas City Center
Sat 06:27:31 AM 38.8131 -88.9794 84° East 327 376 29,000  Level Kansas City Center
Sat 06:28:32 AM 38.8236 -88.8622 83° East 335 386 29,000  Level Kansas City Center
Sat 06:29:32 AM 38.8350 -88.7389 83° East 343 395 29,000  Level Kansas City Center
Sat 06:30:32 AM 38.8467 -88.6122 83° East 348 400 29,000  Level Kansas City Center
Sat 06:31:32 AM 38.8556 -88.4856 85° East 353 406 29,000  Level Kansas City Center
Sat 06:32:32 AM 38.8639 -88.3594 85° East 354 407 29,000  Level Kansas City Center
Sat 06:33:33 AM 38.8747 -88.2322 84° East 356 410 29,000  Level Kansas City Center
Sat 06:34:11 AM 38.8800 -88.1575 85° East 357 411 29,000  Level Indianapolis Center
Sat 06:35:12 AM 38.8892 -88.0297 85° East 357 411 29,000  Level Indianapolis Center
Sat 06:36:12 AM 38.8986 -87.9017 85° East 358 412 29,000  Level Indianapolis Center
Sat 06:37:13 AM 38.9078 -87.7706 85° East 363 418 29,000 -248 Level Indianapolis Center
Sat 06:38:13 AM 38.9172 -87.6392 85° East 368 423 28,500 -595 Descending Indianapolis Center
Sat 06:39:14 AM 38.9269 -87.5036 85° East 376 433 27,800 -793 Descending Indianapolis Center
Sat 06:40:14 AM 38.9367 -87.3667 85° East 382 440 26,900 -942 Descending Indianapolis Center
Sat 06:41:15 AM 38.9461 -87.2267 85° East 388 447 25,900 -942 Descending Indianapolis Center
Sat 06:42:15 AM 38.9558 -87.0875 85° East 389 448 25,000 -850 Descending Indianapolis Center
Sat 06:43:15 AM 38.9647 -86.9492 85° East 387 445 24,200 -893 Descending Indianapolis Center
Sat 06:44:16 AM 38.9739 -86.8144 85° East 378 435 23,200 -942 Descending Indianapolis Center
Sat 06:45:16 AM 38.9828 -86.6819 85° East 371 427 22,300 -744 Descending Indianapolis Center
Sat 06:46:17 AM 38.9897 -86.5692 85° East 366 421 21,700 -397 Descending Indianapolis Center
Sat 06:47:17 AM 38.9981 -86.4414 85° East 362 417 21,500 -198 Descending Indianapolis Center
Sat 06:48:18 AM 39.0053 -86.3136 86° East 361 415 21,300 -246 Descending Indianapolis Center
Sat 06:49:19 AM 39.0147 -86.1608 85° East 360 414 21,000 -496 Descending Indianapolis Center
Sat 06:50:19 AM 39.0222 -86.0344 86° East 358 412 20,300 -843 Descending Indianapolis Center
Sat 06:51:20 AM 39.0286 -85.9081 86° East 358 412 19,300 -992 Descending Indianapolis Center
Sat 06:52:20 AM 39.0364 -85.7836 85° East 351 404 18,300 -992 Descending Indianapolis Center
Sat 06:53:21 AM 39.0428 -85.6619 86° East 347 399 17,300 -942 Descending Indianapolis Center
Sat 06:54:21 AM 39.0500 -85.5436 85° East 337 388 16,400 -942 Descending Indianapolis Center
Sat 06:55:22 AM 39.0556 -85.4253 87° East 333 383 15,400 -992 Descending Indianapolis Center
Sat 06:56:22 AM 39.0606 -85.3147 87° East 317 365 14,400 -992 Descending Indianapolis Center
Sat 06:57:23 AM 39.0656 -85.2064 87° East 307 353 13,400 -1,328 Descending Indianapolis Center
Sat 06:58:24 AM 39.0675 -85.0981 89° East 306 352 11,700 -1,686 Descending Indianapolis Center
Sat 06:59:24 AM 39.0683 -84.9928 89° East 297 342 10,000 -1,736 Descending Indianapolis Center
Sat 07:00:25 AM 39.0592 -84.8747 96° East 291 335 8,200 -1,625 Descending Indianapolis Center
Sat 07:01:00 AM 39.0500 -84.8167 101° East 290 334 7,400 -1,453 Descending Cincinnati TRACON
Sat 07:02:00 AM 39.0500 -84.7000 90° East 295 339 5,900 -1,450 Descending Cincinnati TRACON
Sat 07:03:00 AM 39.0333 -84.6000 102° East 290 334 4,500 -1,524 Descending Cincinnati TRACON
Sat 07:04:06 AM 39.0333 -84.5000 90° East 223 257 2,700 -1,182 Descending Cincinnati TRACON
Sat 07:05:12 AM 39.0500 -84.4500 67° East 141 162 1,900 -727 Descending Cincinnati TRACON
Sat 07:07:00 AM 39.1000 -84.4167 72° East  Level FlightAware Approximate
Sat 07:14:00 AM 39.1033 -84.4186 72° East  Level Estimated

Login

Don't have an account? Register now (free) for customized features, flight alerts, and more!